createdAt,value
2023-11-15T00:01:28.015Z,98548.53
2023-11-15T00:03:55.255Z,98554.56
2023-11-15T00:06:22.618Z,98563.41
2023-11-15T00:08:50.001Z,98545.84
2023-11-15T00:11:20.343Z,98550.25
2023-11-15T00:13:51.829Z,98540.63
2023-11-15T00:16:19.427Z,98545.84
2023-11-15T00:18:46.622Z,98547.59
2023-11-15T00:21:13.805Z,98552.78
2023-11-15T00:23:40.983Z,98530.97
2023-11-15T00:26:08.172Z,98545.84
2023-11-15T00:28:35.267Z,98540.44
2023-11-15T00:31:02.464Z,98542.28
2023-11-15T00:33:29.941Z,98544.84
2023-11-15T00:35:57.505Z,98544.84
2023-11-15T00:38:24.806Z,98544.84
2023-11-15T00:40:52.352Z,98551.91
2023-11-15T00:43:20.155Z,98548.34
2023-11-15T00:45:47.361Z,98542.34
2023-11-15T00:48:15.649Z,98545.63
2023-11-15T00:50:43.064Z,98540.31
2023-11-15T00:53:10.254Z,98550.94
2023-11-15T00:55:37.377Z,98545.66
2023-11-15T00:58:05.193Z,98548.38
2023-11-15T01:00:40.728Z,98542.03
2023-11-15T01:03:08.045Z,98538.56
2023-11-15T01:05:35.338Z,98542.03
2023-11-15T01:08:05.473Z,98539.50
2023-11-15T01:10:33.225Z,98543.78
2023-11-15T01:13:00.340Z,98541.25
2023-11-15T01:15:27.568Z,98541.09
2023-11-15T01:17:58.342Z,98537.63
2023-11-15T01:20:26.410Z,98529.75
2023-11-15T01:22:53.537Z,98538.47
2023-11-15T01:25:21.825Z,98538.53
2023-11-15T01:27:48.956Z,98531.47
2023-11-15T01:30:16.313Z,98529.69
2023-11-15T01:32:43.751Z,98533.22
2023-11-15T01:35:11.019Z,98535.91
2023-11-15T01:37:38.081Z,98534.19
2023-11-15T01:40:07.928Z,98534.06
2023-11-15T01:42:35.301Z,98535.81
2023-11-15T01:45:04.118Z,98537.53
2023-11-15T01:47:31.780Z,98538.47
2023-11-15T01:50:00.730Z,98530.53
2023-11-15T01:52:29.904Z,98531.31
2023-11-15T01:55:00.068Z,98530.44
2023-11-15T01:57:27.525Z,98527.06
2023-11-15T01:59:56.112Z,98528.00
2023-11-15T02:02:23.269Z,98523.53
2023-11-15T02:04:50.464Z,98529.69
2023-11-15T02:07:17.740Z,98539.50
2023-11-15T02:09:45.485Z,98535.94
2023-11-15T02:12:12.657Z,98541.16
2023-11-15T02:14:39.937Z,98539.44
2023-11-15T02:17:07.126Z,98547.38
2023-11-15T02:19:34.333Z,98552.63
2023-11-15T02:22:01.515Z,98548.22
2023-11-15T02:24:29.542Z,98551.69
2023-11-15T02:26:56.814Z,98555.28
2023-11-15T02:29:25.007Z,98550.72
2023-11-15T02:31:52.110Z,98555.25
2023-11-15T02:34:19.479Z,98555.28
2023-11-15T02:36:46.590Z,98564.06
2023-11-15T02:39:14.687Z,98565.00
2023-11-15T02:41:42.353Z,98564.09
2023-11-15T02:44:11.611Z,98558.81
2023-11-15T02:46:38.875Z,98572.13
2023-11-15T02:49:06.106Z,98578.22
2023-11-15T02:51:33.327Z,98571.22
2023-11-15T02:54:00.540Z,98574.66
2023-11-15T02:56:27.718Z,98566.97
2023-11-15T02:58:54.773Z,98575.47
2023-11-15T03:01:21.936Z,98571.16
2023-11-15T03:03:49.430Z,98567.69
2023-11-15T03:06:16.662Z,98571.16
2023-11-15T03:08:43.729Z,98575.59
2023-11-15T03:11:10.934Z,98581.69
2023-11-15T03:13:38.069Z,98579.91
2023-11-15T03:16:05.673Z,98579.16
2023-11-15T03:18:33.318Z,98590.50
2023-11-15T03:21:00.556Z,98588.66
2023-11-15T03:23:27.789Z,98575.47
2023-11-15T03:25:54.965Z,98578.09
2023-11-15T03:28:22.079Z,98577.31
2023-11-15T03:30:49.215Z,98591.50
2023-11-15T03:33:16.405Z,98589.50
2023-11-15T03:35:44.030Z,98581.69
2023-11-15T03:38:11.141Z,98583.31
2023-11-15T03:40:38.365Z,98593.03
2023-11-15T03:43:05.422Z,98590.28
2023-11-15T03:45:32.463Z,98593.81
2023-11-15T03:48:01.430Z,98587.66
2023-11-15T03:50:28.870Z,98590.31
2023-11-15T03:52:56.131Z,98585.16
2023-11-15T03:55:23.251Z,98596.56
2023-11-15T03:57:51.329Z,98596.50
2023-11-15T04:00:19.105Z,98600.91
2023-11-15T04:02:49.535Z,98600.06
2023-11-15T04:05:18.449Z,98600.84
2023-11-15T04:07:45.935Z,98601.88
2023-11-15T04:10:14.210Z,98615.00
2023-11-15T04:12:42.334Z,98604.44
2023-11-15T04:15:13.409Z,98608.84
2023-11-15T04:17:40.618Z,98611.63
2023-11-15T04:20:09.857Z,98600.19
2023-11-15T04:22:37.098Z,98610.53
2023-11-15T04:25:05.982Z,98595.63
2023-11-15T04:27:33.088Z,98600.03
2023-11-15T04:30:00.302Z,98611.59
2023-11-15T04:32:27.501Z,98609.72
2023-11-15T04:34:54.586Z,98608.78
2023-11-15T04:37:22.315Z,98615.09
2023-11-15T04:39:49.711Z,98608.94
2023-11-15T04:42:20.183Z,98611.53
2023-11-15T04:44:47.410Z,98610.66
2023-11-15T04:47:14.553Z,98618.81
2023-11-15T04:49:42.317Z,98617.78
2023-11-15T04:52:09.872Z,98616.97
2023-11-15T04:54:37.011Z,98619.47
2023-11-15T04:57:04.750Z,98610.69
2023-11-15T04:59:33.022Z,98609.00
2023-11-15T05:02:00.375Z,98626.56
2023-11-15T05:04:27.805Z,98617.75
2023-11-15T05:06:55.674Z,98620.47
2023-11-15T05:09:24.469Z,98614.47
2023-11-15T05:11:51.752Z,98617.78
2023-11-15T05:14:18.813Z,98620.38
2023-11-15T05:16:45.908Z,98617.75
2023-11-15T05:19:13.010Z,98611.53
2023-11-15T05:21:40.132Z,98616.81
2023-11-15T05:24:07.932Z,98622.25
2023-11-15T05:26:35.113Z,98624.78
2023-11-15T05:29:02.268Z,98626.50
2023-11-15T05:31:29.477Z,98632.66
2023-11-15T05:33:56.667Z,98626.50
2023-11-15T05:36:23.870Z,98633.53
2023-11-15T05:38:50.933Z,98629.94
2023-11-15T05:41:18.199Z,98631.63
2023-11-15T05:43:46.656Z,98632.53
2023-11-15T05:46:13.852Z,98630.88
2023-11-15T05:48:41.218Z,98637.97
2023-11-15T05:51:08.374Z,98644.00
2023-11-15T05:53:35.596Z,98639.53
2023-11-15T05:56:02.771Z,98644.84
2023-11-15T05:58:29.981Z,98644.81
2023-11-15T06:00:57.092Z,98655.53
2023-11-15T06:03:25.414Z,98658.19
2023-11-15T06:05:52.575Z,98658.16
2023-11-15T06:08:20.464Z,98654.50
2023-11-15T06:10:49.330Z,98662.41
2023-11-15T06:13:17.096Z,98666.91
2023-11-15T06:15:44.923Z,98672.09
2023-11-15T06:18:14.793Z,98665.03
2023-11-15T06:20:42.016Z,98666.00
2023-11-15T06:23:10.167Z,98658.28
2023-11-15T06:25:37.362Z,98670.28
2023-11-15T06:28:04.756Z,98667.56
2023-11-15T06:30:32.165Z,98671.09
2023-11-15T06:32:59.696Z,98672.97
2023-11-15T06:35:26.795Z,98669.38
2023-11-15T06:37:55.624Z,98662.41
2023-11-15T06:40:22.807Z,98669.47
2023-11-15T06:42:50.013Z,98675.75
2023-11-15T06:45:18.391Z,98673.09
2023-11-15T06:47:45.528Z,98681.00
2023-11-15T06:50:13.868Z,98681.00
2023-11-15T06:52:41.428Z,98691.53
2023-11-15T06:55:11.410Z,98692.41
2023-11-15T06:57:42.845Z,98703.00
2023-11-15T07:00:14.798Z,98702.88
2023-11-15T07:02:45.115Z,98699.41
2023-11-15T07:05:12.743Z,98697.59
2023-11-15T07:07:40.294Z,98717.69
2023-11-15T07:10:08.466Z,98708.28
2023-11-15T07:12:36.809Z,98712.63
2023-11-15T07:15:09.288Z,98710.03
2023-11-15T07:17:36.640Z,98713.47
2023-11-15T07:20:07.216Z,98707.19
2023-11-15T07:22:35.256Z,98716.22
2023-11-15T07:25:04.135Z,98726.00
2023-11-15T07:27:32.927Z,98723.50
2023-11-15T07:30:02.087Z,98719.88
2023-11-15T07:32:29.408Z,98723.47
2023-11-15T07:34:57.063Z,98731.22
2023-11-15T07:37:24.163Z,98727.63
2023-11-15T07:40:05.495Z,98735.59
2023-11-15T07:42:33.805Z,98728.56
2023-11-15T07:45:03.612Z,98732.72
2023-11-15T07:47:35.527Z,98724.22
2023-11-15T07:50:04.511Z,98735.88
2023-11-15T07:52:32.789Z,98739.13
2023-11-15T07:55:02.006Z,98738.28
2023-11-15T07:57:29.452Z,98744.47
2023-11-15T07:59:57.394Z,98742.69
2023-11-15T08:02:24.645Z,98740.00
2023-11-15T08:04:52.471Z,98750.47
2023-11-15T08:07:19.789Z,98746.97
2023-11-15T08:09:48.686Z,98747.88
2023-11-15T08:12:15.951Z,98754.09
2023-11-15T08:14:43.069Z,98756.69
2023-11-15T08:17:12.374Z,98763.03
2023-11-15T08:19:39.583Z,98764.94
2023-11-15T08:22:07.235Z,98770.69
2023-11-15T08:24:34.500Z,98771.75
2023-11-15T08:27:02.216Z,98770.88
2023-11-15T08:29:30.000Z,98768.19
2023-11-15T08:31:58.840Z,98768.41
2023-11-15T08:34:25.996Z,98769.25
2023-11-15T08:36:54.271Z,98778.03
2023-11-15T08:39:23.254Z,98776.41
2023-11-15T08:41:50.839Z,98778.31
2023-11-15T08:44:19.053Z,98781.28
2023-11-15T08:46:46.767Z,98779.44
2023-11-15T08:49:16.964Z,98791.91
2023-11-15T08:51:51.943Z,98795.44
2023-11-15T08:54:19.296Z,98802.34
2023-11-15T08:56:46.648Z,98800.69
2023-11-15T08:59:17.200Z,98808.84
2023-11-15T09:01:46.144Z,98800.19
2023-11-15T09:04:18.188Z,98814.31
2023-11-15T09:06:49.836Z,98824.91
2023-11-15T09:09:17.893Z,98828.41
2023-11-15T09:11:46.225Z,98834.63
2023-11-15T09:14:15.924Z,98840.75
2023-11-15T09:16:46.111Z,98841.66
2023-11-15T09:19:18.141Z,98847.84
2023-11-15T09:21:49.299Z,98834.63
2023-11-15T09:24:23.534Z,98831.97
2023-11-15T09:26:51.923Z,98839.91
2023-11-15T09:29:20.814Z,98840.81
2023-11-15T09:31:48.106Z,98844.28
2023-11-15T09:34:15.412Z,98835.44
2023-11-15T09:36:43.765Z,98838.94
2023-11-15T09:39:11.536Z,98835.47
2023-11-15T09:41:39.075Z,98837.28
2023-11-15T09:44:12.448Z,98835.47
2023-11-15T09:46:40.239Z,98830.19
2023-11-15T09:49:09.050Z,98841.66
2023-11-15T09:51:38.507Z,98840.78
2023-11-15T09:54:13.088Z,98845.22
2023-11-15T09:56:46.880Z,98839.06
2023-11-15T09:59:15.952Z,98853.16
2023-11-15T10:01:50.641Z,98852.28
2023-11-15T10:04:29.138Z,98854.03
2023-11-15T10:07:03.788Z,98861.09
2023-11-15T10:09:37.449Z,98861.03
2023-11-15T10:12:07.519Z,98864.50
2023-11-15T10:14:36.708Z,98853.94
2023-11-15T10:17:04.665Z,98868.81
2023-11-15T10:19:31.982Z,98858.22
2023-11-15T10:22:05.642Z,98858.16
2023-11-15T10:24:36.163Z,98864.28
2023-11-15T10:27:10.058Z,98861.59
2023-11-15T10:29:40.594Z,98867.88
2023-11-15T10:32:08.046Z,98864.28
2023-11-15T10:34:48.154Z,98867.75
2023-11-15T10:37:15.302Z,98867.69
2023-11-15T10:39:45.144Z,98862.31
2023-11-15T10:42:14.005Z,98872.94
2023-11-15T10:44:43.583Z,98871.16
2023-11-15T10:47:11.747Z,98880.00
2023-11-15T10:49:44.756Z,98872.19
2023-11-15T10:52:15.336Z,98870.97
2023-11-15T10:54:43.967Z,98880.81
2023-11-15T10:57:12.755Z,98879.09
2023-11-15T10:59:42.198Z,98880.00
2023-11-15T11:02:11.100Z,98880.13
2023-11-15T11:04:40.387Z,98883.63
2023-11-15T11:07:34.728Z,98882.81
2023-11-15T11:10:18.117Z,98885.44
2023-11-15T11:12:46.224Z,98895.03
2023-11-15T11:15:20.309Z,98899.44
2023-11-15T11:17:49.825Z,98893.28
2023-11-15T11:20:28.331Z,98892.41
2023-11-15T11:23:23.279Z,98893.16
2023-11-15T11:25:53.190Z,98892.38
2023-11-15T11:28:23.383Z,98896.84
2023-11-15T11:31:20.052Z,98902.13
2023-11-15T11:34:10.672Z,98900.50
2023-11-15T11:36:59.875Z,98907.69
2023-11-15T11:39:45.832Z,98905.91
2023-11-15T11:42:28.701Z,98916.38
2023-11-15T11:44:56.471Z,98920.78
2023-11-15T11:47:24.292Z,98927.84
2023-11-15T11:49:53.700Z,98924.41
2023-11-15T11:52:21.211Z,98934.25
2023-11-15T11:54:54.102Z,98933.28
2023-11-15T11:57:25.621Z,98929.72
2023-11-15T12:00:15.071Z,98934.00
2023-11-15T12:02:50.408Z,98932.28
2023-11-15T12:05:25.995Z,98929.47
2023-11-15T12:07:57.448Z,98926.88
2023-11-15T12:10:26.522Z,98938.31
2023-11-15T12:13:06.849Z,98927.72
2023-11-15T12:15:38.255Z,98936.53
2023-11-15T12:18:07.463Z,98939.19
2023-11-15T12:20:44.819Z,98931.19
2023-11-15T12:23:19.373Z,98945.63
2023-11-15T12:25:55.594Z,98942.50
2023-11-15T12:28:28.420Z,98945.16
2023-11-15T12:30:58.109Z,98952.25
2023-11-15T12:33:45.974Z,98953.19
2023-11-15T12:36:14.528Z,98963.75
2023-11-15T12:38:56.242Z,98967.84
2023-11-15T12:41:23.814Z,98973.13
2023-11-15T12:44:04.441Z,98972.63
2023-11-15T12:46:31.711Z,98981.94
2023-11-15T12:48:58.998Z,98993.97
2023-11-15T12:51:26.054Z,98999.25
2023-11-15T12:53:55.246Z,99008.91
2023-11-15T12:56:22.494Z,99005.13
2023-11-15T12:58:50.839Z,99018.34
2023-11-15T13:01:20.208Z,99012.03
2023-11-15T13:03:55.863Z,99018.16
2023-11-15T13:06:25.795Z,99028.78
2023-11-15T13:08:55.066Z,99025.94
2023-11-15T13:11:26.248Z,99037.44
2023-11-15T13:13:55.027Z,99028.72
2023-11-15T13:16:25.258Z,99035.56
2023-11-15T13:18:52.531Z,99039.06
2023-11-15T13:21:23.443Z,99050.53
2023-11-15T13:23:55.318Z,99044.50
2023-11-15T13:26:24.732Z,99048.16
2023-11-15T13:28:52.065Z,99065.31
2023-11-15T13:31:25.792Z,99070.72
2023-11-15T13:33:57.142Z,99066.94
2023-11-15T13:36:26.433Z,99090.56
2023-11-15T13:38:53.739Z,99092.06
2023-11-15T13:41:24.770Z,99096.34
2023-11-15T13:43:55.969Z,99096.13
2023-11-15T13:46:30.098Z,99114.28
2023-11-15T13:48:59.773Z,99120.22
2023-11-15T13:51:26.934Z,99123.53
2023-11-15T13:53:54.005Z,99128.88
2023-11-15T13:56:21.231Z,99144.25
2023-11-15T13:58:48.369Z,99146.88
2023-11-15T14:01:15.477Z,99147.56
2023-11-15T14:03:43.992Z,99152.63
2023-11-15T14:06:12.391Z,99161.50
2023-11-15T14:08:51.373Z,99158.72
2023-11-15T14:11:26.499Z,99173.56
2023-11-15T14:13:53.683Z,99183.56
2023-11-15T14:16:22.108Z,99191.34
2023-11-15T14:18:51.364Z,99193.03
2023-11-15T14:21:19.426Z,99187.75
2023-11-15T14:23:46.643Z,99200.75
2023-11-15T14:26:15.605Z,99205.81
2023-11-15T14:28:46.736Z,99212.81
2023-11-15T14:31:14.375Z,99217.03
2023-11-15T14:33:41.663Z,99221.75
2023-11-15T14:36:11.066Z,99219.56
2023-11-15T14:38:38.656Z,99231.06
2023-11-15T14:41:06.150Z,99232.84
2023-11-15T14:43:33.292Z,99245.78
2023-11-15T14:46:00.519Z,99248.41
2023-11-15T14:48:28.184Z,99254.16
2023-11-15T14:50:55.769Z,99264.56
2023-11-15T14:53:22.864Z,99271.06
2023-11-15T14:55:50.753Z,99280.09
2023-11-15T14:58:19.819Z,99282.25
2023-11-15T15:00:47.891Z,99294.31
2023-11-15T15:03:16.086Z,99298.72
2023-11-15T15:05:43.401Z,99295.72
2023-11-15T15:08:13.047Z,99299.84
2023-11-15T15:10:40.561Z,99303.50
2023-11-15T15:13:11.388Z,99306.94
2023-11-15T15:15:39.829Z,99314.19
2023-11-15T15:18:13.428Z,99319.97
2023-11-15T15:20:45.473Z,99327.38
2023-11-15T15:23:13.916Z,99336.06
2023-11-15T15:25:43.572Z,99336.88
2023-11-15T15:28:10.775Z,99339.50
2023-11-15T15:30:38.594Z,99341.94
2023-11-15T15:33:08.593Z,99353.28
2023-11-15T15:35:36.346Z,99356.84
2023-11-15T15:38:03.962Z,99366.94
2023-11-15T15:40:38.079Z,99370.84
2023-11-15T15:43:05.420Z,99380.31
2023-11-15T15:45:32.614Z,99382.19
2023-11-15T15:48:01.325Z,99386.63
2023-11-15T15:50:28.927Z,99403.09
2023-11-15T15:52:56.460Z,99402.91
2023-11-15T15:55:23.980Z,99413.06
2023-11-15T15:57:51.393Z,99414.66
2023-11-15T16:00:19.066Z,99423.16
2023-11-15T16:02:48.072Z,99426.63
2023-11-15T16:05:17.738Z,99426.78
2023-11-15T16:07:47.745Z,99435.72
2023-11-15T16:10:14.887Z,99446.31
2023-11-15T16:12:41.954Z,99446.66
2023-11-15T16:15:17.366Z,99460.56
2023-11-15T16:17:45.146Z,99469.25
2023-11-15T16:20:13.302Z,99472.97
2023-11-15T16:22:40.880Z,99478.94
2023-11-15T16:25:08.444Z,99478.72
2023-11-15T16:27:37.794Z,99487.94
2023-11-15T16:30:06.630Z,99482.41
2023-11-15T16:32:36.596Z,99492.47
2023-11-15T16:35:05.509Z,99492.81
2023-11-15T16:37:36.186Z,99497.13
2023-11-15T16:40:06.594Z,99496.09
2023-11-15T16:42:34.263Z,99502.25
2023-11-15T16:45:02.592Z,99507.84
2023-11-15T16:47:30.059Z,99509.50
2023-11-15T16:49:59.123Z,99508.63
2023-11-15T16:52:26.315Z,99527.09
2023-11-15T16:54:53.493Z,99534.91
2023-11-15T16:57:20.748Z,99539.88
2023-11-15T16:59:50.355Z,99540.44
2023-11-15T17:02:18.750Z,99552.00
2023-11-15T17:04:46.256Z,99555.69
2023-11-15T17:07:13.370Z,99554.56
2023-11-15T17:09:42.106Z,99563.06
2023-11-15T17:12:09.741Z,99571.09
2023-11-15T17:14:36.966Z,99585.84
2023-11-15T17:17:05.704Z,99587.81
2023-11-15T17:19:32.915Z,99594.56
2023-11-15T17:22:00.069Z,99594.19
2023-11-15T17:24:27.542Z,99602.91
2023-11-15T17:26:54.920Z,99602.53
2023-11-15T17:29:22.070Z,99608.00
2023-11-15T17:31:49.279Z,99610.84
2023-11-15T17:34:16.669Z,99618.94
2023-11-15T17:36:44.812Z,99622.63
2023-11-15T17:39:13.926Z,99630.50
2023-11-15T17:41:42.451Z,99627.09
2023-11-15T17:44:12.987Z,99643.97
2023-11-15T17:46:43.664Z,99638.25
2023-11-15T17:49:12.263Z,99655.97
2023-11-15T17:51:39.816Z,99663.94
2023-11-15T17:54:11.397Z,99678.94
2023-11-15T17:56:38.606Z,99671.16
2023-11-15T17:59:05.904Z,99664.91
2023-11-15T18:01:39.608Z,99679.69
2023-11-15T18:04:10.698Z,99680.59
2023-11-15T18:06:38.752Z,99688.84
2023-11-15T18:09:08.442Z,99691.97
2023-11-15T18:11:36.609Z,99690.75
2023-11-15T18:14:03.973Z,99705.38
2023-11-15T18:16:32.133Z,99703.97
2023-11-15T18:19:06.141Z,99706.34
2023-11-15T18:21:33.835Z,99724.13
2023-11-15T18:24:01.888Z,99719.00
2023-11-15T18:26:31.239Z,99717.88
2023-11-15T18:28:58.645Z,99723.47
2023-11-15T18:31:27.308Z,99738.56
2023-11-15T18:33:57.683Z,99736.00
2023-11-15T18:36:25.882Z,99739.34
2023-11-15T18:38:53.329Z,99743.81
2023-11-15T18:41:20.461Z,99743.63
2023-11-15T18:43:50.010Z,99757.84
2023-11-15T18:46:17.564Z,99767.50
2023-11-15T18:48:45.006Z,99756.38
2023-11-15T18:51:12.990Z,99764.84
2023-11-15T18:53:40.741Z,99758.22
2023-11-15T18:56:08.679Z,99764.16
2023-11-15T18:58:37.034Z,99772.75
2023-11-15T19:01:04.624Z,99776.78
2023-11-15T19:03:32.052Z,99777.13
2023-11-15T19:05:59.646Z,99776.53
2023-11-15T19:08:26.835Z,99777.81
2023-11-15T19:10:55.637Z,99786.00
2023-11-15T19:13:26.304Z,99779.22
2023-11-15T19:15:59.277Z,99781.78
2023-11-15T19:18:29.930Z,99779.97
2023-11-15T19:20:58.945Z,99784.34
2023-11-15T19:23:26.588Z,99782.94
2023-11-15T19:25:53.737Z,99787.16
2023-11-15T19:28:21.512Z,99803.09
2023-11-15T19:30:50.464Z,99810.22
2023-11-15T19:33:18.394Z,99815.41
2023-11-15T19:35:47.024Z,99823.34
2023-11-15T19:38:14.283Z,99826.53
2023-11-15T19:40:41.493Z,99825.22
2023-11-15T19:43:10.522Z,99819.63
2023-11-15T19:45:38.121Z,99840.81
2023-11-15T19:48:06.471Z,99838.97
2023-11-15T19:50:35.043Z,99843.63
2023-11-15T19:53:04.682Z,99845.50
2023-11-15T19:55:32.432Z,99843.03
2023-11-15T19:57:59.640Z,99842.94
2023-11-15T20:00:26.857Z,99850.81
2023-11-15T20:02:54.142Z,99850.53
2023-11-15T20:05:22.626Z,99841.28
2023-11-15T20:07:49.903Z,99846.47
2023-11-15T20:10:17.183Z,99844.63
2023-11-15T20:12:44.887Z,99858.03
2023-11-15T20:15:13.752Z,99859.63
2023-11-15T20:17:42.712Z,99865.41
2023-11-15T20:20:10.985Z,99874.34
2023-11-15T20:22:45.625Z,99874.06
2023-11-15T20:25:20.536Z,99877.94
2023-11-15T20:27:47.753Z,99879.94
2023-11-15T20:30:15.505Z,99881.56
2023-11-15T20:32:42.937Z,99884.56
2023-11-15T20:35:12.053Z,99885.91
2023-11-15T20:37:39.384Z,99898.66
2023-11-15T20:40:09.126Z,99897.19
2023-11-15T20:42:36.555Z,99901.53
2023-11-15T20:45:04.172Z,99903.84
2023-11-15T20:47:33.376Z,99910.34
2023-11-15T20:50:00.801Z,99903.84
2023-11-15T20:52:27.918Z,99907.63
2023-11-15T20:54:55.133Z,99910.66
2023-11-15T20:57:24.165Z,99908.13
2023-11-15T20:59:58.317Z,99909.72
2023-11-15T21:02:26.524Z,99906.22
2023-11-15T21:04:56.778Z,99908.34
2023-11-15T21:07:24.574Z,99914.63
2023-11-15T21:09:53.999Z,99909.59
2023-11-15T21:12:22.330Z,99919.09
2023-11-15T21:14:49.483Z,99918.34
2023-11-15T21:17:16.585Z,99925.44
2023-11-15T21:19:43.685Z,99927.75
2023-11-15T21:22:10.793Z,99926.50
2023-11-15T21:24:37.987Z,99936.66
2023-11-15T21:27:05.526Z,99932.78
2023-11-15T21:29:33.304Z,99933.72
2023-11-15T21:32:01.160Z,99939.66
2023-11-15T21:34:28.511Z,99941.19
2023-11-15T21:37:03.191Z,99938.03
2023-11-15T21:39:37.221Z,99949.41
2023-11-15T21:42:05.594Z,99947.78
2023-11-15T21:44:32.727Z,99963.94
2023-11-15T21:47:00.005Z,99961.44
2023-11-15T21:49:27.374Z,99963.78
2023-11-15T21:51:54.513Z,99968.25
2023-11-15T21:54:21.647Z,99972.78
2023-11-15T21:56:48.710Z,99977.47
2023-11-15T21:59:15.784Z,99971.03
2023-11-15T22:01:42.905Z,99964.25
2023-11-15T22:04:10.196Z,99967.28
2023-11-15T22:06:38.326Z,99982.84
2023-11-15T22:09:06.172Z,99982.91
2023-11-15T22:11:33.373Z,99996.81
2023-11-15T22:14:00.660Z,99998.53
2023-11-15T22:16:27.750Z,100001.63
2023-11-15T22:18:55.009Z,100001.56
2023-11-15T22:21:23.418Z,100013.91
2023-11-15T22:23:50.607Z,100011.72
2023-11-15T22:26:17.875Z,100005.50
2023-11-15T22:28:44.910Z,100012.41
2023-11-15T22:31:13.932Z,100010.97
2023-11-15T22:33:41.158Z,100009.88
2023-11-15T22:36:08.676Z,100015.16
2023-11-15T22:38:36.568Z,100014.25
2023-11-15T22:41:05.497Z,100011.03
2023-11-15T22:43:32.595Z,100019.72
2023-11-15T22:45:59.709Z,100008.72
2023-11-15T22:48:26.846Z,100010.31
2023-11-15T22:50:56.497Z,100015.47
2023-11-15T22:53:23.812Z,100022.19
2023-11-15T22:55:50.934Z,100023.25
2023-11-15T22:58:18.244Z,100024.94
2023-11-15T23:00:48.590Z,100029.00
2023-11-15T23:03:16.230Z,100034.97
2023-11-15T23:05:44.182Z,100040.53
2023-11-15T23:08:15.727Z,100037.00
2023-11-15T23:10:45.712Z,100049.66
2023-11-15T23:13:12.941Z,100052.19
2023-11-15T23:15:40.118Z,100043.28
2023-11-15T23:18:07.354Z,100059.47
2023-11-15T23:20:35.260Z,100048.75
2023-11-15T23:23:03.103Z,100049.19
2023-11-15T23:25:30.583Z,100052.88
2023-11-15T23:27:57.749Z,100048.47
2023-11-15T23:30:25.387Z,100050.63
2023-11-15T23:32:53.592Z,100055.06
2023-11-15T23:35:21.594Z,100060.41
2023-11-15T23:37:49.350Z,100058.44
2023-11-15T23:40:16.732Z,100067.84
2023-11-15T23:42:46.728Z,100068.28
2023-11-15T23:45:15.770Z,100066.75
2023-11-15T23:47:43.452Z,100073.28
2023-11-15T23:50:11.062Z,100077.78
2023-11-15T23:52:38.120Z,100074.13
2023-11-15T23:55:05.840Z,100070.75
2023-11-15T23:57:33.812Z,100070.88
